createdAt,value
2023-05-30T00:00:19.393Z,51.5
2023-05-30T00:01:35.580Z,51.5
2023-05-30T00:02:50.830Z,51.5
2023-05-30T00:04:06.039Z,51.5
2023-05-30T00:05:21.180Z,51.5
2023-05-30T00:06:37.319Z,51.5
2023-05-30T00:07:53.456Z,51.5
2023-05-30T00:09:09.589Z,51.5
2023-05-30T00:10:25.727Z,51.5
2023-05-30T00:11:41.867Z,51.5
2023-05-30T00:12:57.997Z,51.5
2023-05-30T00:14:14.138Z,51.5
2023-05-30T00:15:30.273Z,51.6
2023-05-30T00:16:46.399Z,51.6
2023-05-30T00:18:02.554Z,51.6
2023-05-30T00:19:18.683Z,51.6
2023-05-30T00:20:34.818Z,51.6
2023-05-30T00:21:50.948Z,51.7
2023-05-30T00:23:07.071Z,51.7
2023-05-30T00:24:23.219Z,51.7
2023-05-30T00:25:39.366Z,51.7
2023-05-30T00:26:55.487Z,51.7
2023-05-30T00:28:11.621Z,51.7
2023-05-30T00:29:27.756Z,51.7
2023-05-30T00:30:43.915Z,51.7
2023-05-30T00:32:00.049Z,51.7
2023-05-30T00:33:16.166Z,51.7
2023-05-30T00:34:32.297Z,51.7
2023-05-30T00:35:48.449Z,51.7
2023-05-30T00:37:04.579Z,51.7
2023-05-30T00:38:20.720Z,51.7
2023-05-30T00:39:36.860Z,51.7
2023-05-30T00:40:52.988Z,51.8
2023-05-30T00:42:09.124Z,51.7
2023-05-30T00:43:25.269Z,51.7
2023-05-30T00:44:41.406Z,51.8
2023-05-30T00:45:57.542Z,51.8
2023-05-30T00:47:13.664Z,51.8
2023-05-30T00:48:29.801Z,51.8
2023-05-30T00:49:45.957Z,51.8
2023-05-30T00:51:02.073Z,51.8
2023-05-30T00:52:18.284Z,51.8
2023-05-30T00:53:33.527Z,51.8
2023-05-30T00:54:48.747Z,51.8
2023-05-30T00:56:04.868Z,51.8
2023-05-30T00:57:21.000Z,51.8
2023-05-30T00:58:37.133Z,51.8
2023-05-30T00:59:53.281Z,51.8
2023-05-30T01:01:09.417Z,51.8
2023-05-30T01:02:25.550Z,51.9
2023-05-30T01:03:41.687Z,51.9
2023-05-30T01:04:57.818Z,51.9
2023-05-30T01:06:13.970Z,51.9
2023-05-30T01:07:30.109Z,51.9
2023-05-30T01:08:46.241Z,51.9
2023-05-30T01:10:02.376Z,51.9
2023-05-30T01:11:18.493Z,51.9
2023-05-30T01:12:34.659Z,51.9
2023-05-30T01:13:50.783Z,51.9
2023-05-30T01:15:06.913Z,51.9
2023-05-30T01:16:23.057Z,51.9
2023-05-30T01:17:39.191Z,51.9
2023-05-30T01:18:55.330Z,51.9
2023-05-30T01:20:11.463Z,51.9
2023-05-30T01:21:27.592Z,51.9
2023-05-30T01:22:43.735Z,51.9
2023-05-30T01:23:59.862Z,51.9
2023-05-30T01:25:16.015Z,51.9
2023-05-30T01:26:32.201Z,52
2023-05-30T01:27:47.433Z,52
2023-05-30T01:29:02.653Z,52
2023-05-30T01:30:18.772Z,52
2023-05-30T01:31:34.912Z,52
2023-05-30T01:32:51.048Z,52
2023-05-30T01:34:07.187Z,52
2023-05-30T01:35:23.323Z,52
2023-05-30T01:36:39.464Z,52
2023-05-30T01:37:55.586Z,52
2023-05-30T01:39:11.735Z,52
2023-05-30T01:40:27.857Z,52
2023-05-30T01:41:44.003Z,52.1
2023-05-30T01:43:00.133Z,52.1
2023-05-30T01:44:16.272Z,52
2023-05-30T01:45:32.413Z,52
2023-05-30T01:46:48.548Z,52
2023-05-30T01:48:04.690Z,52.1
2023-05-30T01:50:36.959Z,52.1
2023-05-30T01:51:53.084Z,52.1
2023-05-30T01:53:09.217Z,52.1
2023-05-30T01:54:25.369Z,52.1
2023-05-30T01:55:41.497Z,52.1
2023-05-30T01:58:13.779Z,52.1
2023-05-30T01:59:29.911Z,52.1
2023-05-30T02:00:46.105Z,52.1
2023-05-30T02:02:01.349Z,52.1
2023-05-30T02:03:17.547Z,52.1
2023-05-30T02:04:32.735Z,52.2
2023-05-30T02:05:48.875Z,52.2
2023-05-30T02:07:05.020Z,52.1
2023-05-30T02:08:21.145Z,52.2
2023-05-30T02:09:37.283Z,52.2
2023-05-30T02:10:53.435Z,52.2
2023-05-30T02:12:09.555Z,52.2
2023-05-30T02:13:25.688Z,52.2
2023-05-30T02:14:41.832Z,52.2
2023-05-30T02:15:57.965Z,52.2
2023-05-30T02:17:14.115Z,52.2
2023-05-30T02:18:30.246Z,52.2
2023-05-30T02:19:46.378Z,52.2
2023-05-30T02:21:02.510Z,52.2
2023-05-30T02:22:18.627Z,52.2
2023-05-30T02:23:34.776Z,52.2
2023-05-30T02:24:50.926Z,52.2
2023-05-30T02:26:07.046Z,52.2
2023-05-30T02:27:23.192Z,52.2
2023-05-30T02:28:39.320Z,52.3
2023-05-30T02:29:55.456Z,52.3
2023-05-30T02:31:11.597Z,52.3
2023-05-30T02:32:27.741Z,52.3
2023-05-30T02:33:43.859Z,52.3
2023-05-30T02:35:00.006Z,52.3
2023-05-30T02:36:16.201Z,52.3
2023-05-30T02:37:31.433Z,52.3
2023-05-30T02:38:46.640Z,52.3
2023-05-30T02:40:02.793Z,52.3
2023-05-30T02:41:18.934Z,52.3
2023-05-30T02:42:35.057Z,52.3
2023-05-30T02:43:51.190Z,52.3
2023-05-30T02:45:07.330Z,52.3
2023-05-30T02:46:23.481Z,52.3
2023-05-30T02:47:39.606Z,52.4
2023-05-30T02:48:55.729Z,52.4
2023-05-30T02:50:11.875Z,52.4
2023-05-30T02:51:28.014Z,52.4
2023-05-30T02:52:44.159Z,52.5
2023-05-30T02:54:00.279Z,52.4
2023-05-30T02:55:16.417Z,52.4
2023-05-30T02:56:32.558Z,52.4
2023-05-30T02:57:48.687Z,52.5
2023-05-30T02:59:04.826Z,52.5
2023-05-30T03:00:20.962Z,52.5
2023-05-30T03:01:37.101Z,52.5
2023-05-30T03:02:53.234Z,52.5
2023-05-30T03:04:09.360Z,52.5
2023-05-30T03:05:25.507Z,52.5
2023-05-30T03:06:41.645Z,52.5
2023-05-30T03:07:57.787Z,52.5
2023-05-30T03:09:13.920Z,52.5
2023-05-30T03:10:30.104Z,52.5
2023-05-30T03:11:45.337Z,52.5
2023-05-30T03:13:00.558Z,52.5
2023-05-30T03:14:16.680Z,52.5
2023-05-30T03:15:32.827Z,52.5
2023-05-30T03:16:48.965Z,52.5
2023-05-30T03:18:05.086Z,52.5
2023-05-30T03:19:21.225Z,52.5
2023-05-30T03:20:37.359Z,52.5
2023-05-30T03:21:53.504Z,52.5
2023-05-30T03:23:09.649Z,52.5
2023-05-30T03:24:25.777Z,52.5
2023-05-30T03:25:41.907Z,52.5
2023-05-30T03:26:58.045Z,52.5
2023-05-30T03:28:14.192Z,52.5
2023-05-30T03:29:30.329Z,52.5
2023-05-30T03:30:46.455Z,52.5
2023-05-30T03:32:02.588Z,52.5
2023-05-30T03:33:18.715Z,52.5
2023-05-30T03:34:34.860Z,52.5
2023-05-30T03:35:50.999Z,52.5
2023-05-30T03:37:07.137Z,52.5
2023-05-30T03:38:23.265Z,52.5
2023-05-30T03:39:39.392Z,52.5
2023-05-30T03:40:55.546Z,52.5
2023-05-30T03:42:11.690Z,52.5
2023-05-30T03:43:27.811Z,52.5
2023-05-30T03:44:44.011Z,52.5
2023-05-30T03:45:59.242Z,52.5
2023-05-30T03:47:15.428Z,52.5
2023-05-30T03:48:30.643Z,52.5
2023-05-30T03:49:46.780Z,52.5
2023-05-30T03:51:02.917Z,52.5
2023-05-30T03:52:19.061Z,52.5
2023-05-30T03:53:35.191Z,52.5
2023-05-30T03:54:51.323Z,52.5
2023-05-30T03:56:07.460Z,52.4
2023-05-30T03:57:23.609Z,52.4
2023-05-30T03:58:39.741Z,52.4
2023-05-30T03:59:55.873Z,52.4
2023-05-30T04:01:11.999Z,52.4
2023-05-30T04:02:28.140Z,52.4
2023-05-30T04:03:44.290Z,52.4
2023-05-30T04:05:00.417Z,52.4
2023-05-30T04:06:16.550Z,52.4
2023-05-30T04:07:32.681Z,52.4
2023-05-30T04:08:48.821Z,52.4
2023-05-30T04:10:04.966Z,52.4
2023-05-30T04:11:21.100Z,52.3
2023-05-30T04:12:37.228Z,52.3
2023-05-30T04:13:53.361Z,52.3
2023-05-30T04:15:09.497Z,52.3
2023-05-30T04:16:25.640Z,52.3
2023-05-30T04:17:41.767Z,52.3
2023-05-30T04:18:57.912Z,52.3
2023-05-30T04:20:14.106Z,52.3
2023-05-30T04:21:29.336Z,52.3
2023-05-30T04:22:44.537Z,52.3
2023-05-30T04:23:59.694Z,52.2
2023-05-30T04:25:15.836Z,52.2
2023-05-30T04:26:31.979Z,52.2
2023-05-30T04:27:48.100Z,52.2
2023-05-30T04:29:04.249Z,52.2
2023-05-30T04:30:20.384Z,52.2
2023-05-30T04:31:36.522Z,52.1
2023-05-30T04:32:52.647Z,52
2023-05-30T04:34:08.786Z,52
2023-05-30T04:35:24.916Z,52
2023-05-30T04:36:41.061Z,52
2023-05-30T04:37:57.204Z,52
2023-05-30T04:39:13.328Z,52
2023-05-30T04:40:29.478Z,52
2023-05-30T04:41:45.605Z,52
2023-05-30T04:43:01.733Z,51.9
2023-05-30T04:44:17.872Z,51.9
2023-05-30T04:45:34.018Z,51.9
2023-05-30T04:46:50.151Z,51.9
2023-05-30T04:48:06.282Z,51.9
2023-05-30T04:49:22.408Z,51.9
2023-05-30T04:50:38.555Z,51.9
2023-05-30T04:51:54.688Z,51.9
2023-05-30T04:53:10.835Z,51.8
2023-05-30T04:54:26.963Z,51.8
2023-05-30T04:55:43.104Z,51.8
2023-05-30T04:56:59.235Z,51.8
2023-05-30T04:58:15.374Z,51.8
2023-05-30T04:59:31.508Z,51.7
2023-05-30T05:00:47.641Z,51.7
2023-05-30T05:02:03.773Z,51.7
2023-05-30T05:03:19.916Z,51.7
2023-05-30T05:04:36.047Z,51.7
2023-05-30T05:05:52.193Z,51.6
2023-05-30T05:07:08.314Z,51.6
2023-05-30T05:08:24.453Z,51.6
2023-05-30T05:09:40.592Z,51.6
2023-05-30T05:10:56.790Z,51.6
2023-05-30T05:12:12.063Z,51.5
2023-05-30T05:13:27.264Z,51.5
2023-05-30T05:14:43.387Z,51.5
2023-05-30T05:15:59.535Z,51.5
2023-05-30T05:17:15.652Z,51.4
2023-05-30T05:18:31.798Z,51.4
2023-05-30T05:19:47.945Z,51.4
2023-05-30T05:21:04.074Z,51.4
2023-05-30T05:22:20.207Z,51.3
2023-05-30T05:23:36.336Z,51.3
2023-05-30T05:24:52.471Z,51.2
2023-05-30T05:26:08.623Z,51.2
2023-05-30T05:27:24.762Z,51.2
2023-05-30T05:28:40.887Z,51.2
2023-05-30T05:29:57.017Z,51.1
2023-05-30T05:31:13.153Z,51.1
2023-05-30T05:32:29.306Z,51.1
2023-05-30T05:33:45.442Z,51
2023-05-30T05:35:01.575Z,51
2023-05-30T05:36:17.706Z,50.9
2023-05-30T05:37:33.826Z,50.8
2023-05-30T05:38:49.982Z,50.7
2023-05-30T05:40:06.111Z,50.7
2023-05-30T05:41:22.253Z,50.7
2023-05-30T05:42:38.388Z,50.6
2023-05-30T05:43:54.503Z,50.5
2023-05-30T05:45:10.716Z,50.5
2023-05-30T05:46:25.950Z,50.4
2023-05-30T05:47:42.142Z,50.4
2023-05-30T05:48:57.361Z,50.3
2023-05-30T05:50:13.498Z,50.2
2023-05-30T05:51:29.631Z,50
2023-05-30T05:52:45.759Z,50
2023-05-30T05:54:01.885Z,50
2023-05-30T05:55:18.029Z,49.9
2023-05-30T05:56:34.174Z,49.9
2023-05-30T05:57:50.299Z,49.9
2023-05-30T05:59:06.440Z,49.8
2023-05-30T06:00:22.568Z,49.8
2023-05-30T06:01:38.708Z,49.7
2023-05-30T06:02:54.842Z,49.7
2023-05-30T06:04:10.986Z,49.6
2023-05-30T06:05:27.125Z,49.6
2023-05-30T06:06:43.248Z,49.6
2023-05-30T06:07:59.400Z,49.5
2023-05-30T06:09:15.540Z,49.4
2023-05-30T06:10:31.663Z,49.4
2023-05-30T06:11:47.803Z,49.3
2023-05-30T06:13:03.933Z,49.2
2023-05-30T06:14:20.082Z,49.2
2023-05-30T06:15:36.212Z,49.1
2023-05-30T06:16:52.349Z,49
2023-05-30T06:18:08.470Z,49
2023-05-30T06:19:24.608Z,48.9
2023-05-30T06:20:40.827Z,48.7
2023-05-30T06:21:56.055Z,48.7
2023-05-30T06:23:11.268Z,48.6
2023-05-30T06:24:27.411Z,48.6
2023-05-30T06:25:43.543Z,48.5
2023-05-30T06:26:59.676Z,48.4
2023-05-30T06:28:15.810Z,48.3
2023-05-30T06:29:31.945Z,48.3
2023-05-30T06:30:48.093Z,48.2
2023-05-30T06:32:04.226Z,48.2
2023-05-30T06:33:20.363Z,48.1
2023-05-30T06:34:36.495Z,48.1
2023-05-30T06:35:52.623Z,48
2023-05-30T06:37:08.781Z,48
2023-05-30T06:38:24.908Z,47.9
2023-05-30T06:39:41.039Z,47.8
2023-05-30T06:40:57.164Z,47.8
2023-05-30T06:42:13.297Z,47.6
2023-05-30T06:43:29.442Z,47.5
2023-05-30T06:44:45.587Z,47.5
2023-05-30T06:46:01.711Z,47.4
2023-05-30T06:47:17.859Z,47.3
2023-05-30T06:48:33.988Z,47.1
2023-05-30T06:49:50.140Z,47.1
2023-05-30T06:51:06.269Z,47
2023-05-30T06:52:22.401Z,46.9
2023-05-30T06:53:38.540Z,46.8
2023-05-30T06:54:54.725Z,46.8
2023-05-30T06:56:09.956Z,46.7
2023-05-30T06:57:25.178Z,46.6
2023-05-30T06:58:41.304Z,46.6
2023-05-30T06:59:57.446Z,46.5
2023-05-30T07:01:13.578Z,46.4
2023-05-30T07:02:29.717Z,46.4
2023-05-30T07:05:01.985Z,46.2
2023-05-30T07:06:18.126Z,46.1
2023-05-30T07:07:34.268Z,45.8
2023-05-30T07:08:50.390Z,45.4
2023-05-30T07:10:06.526Z,44.7
2023-05-30T07:11:22.667Z,43.8
2023-05-30T07:12:38.818Z,42.8
2023-05-30T07:13:54.957Z,41.8
2023-05-30T07:15:11.085Z,40.9
2023-05-30T07:16:27.215Z,40
2023-05-30T07:17:43.340Z,39.2
2023-05-30T07:18:59.504Z,38.6
2023-05-30T07:20:15.626Z,37.8
2023-05-30T07:21:31.753Z,37.2
2023-05-30T07:22:47.894Z,36.6
2023-05-30T07:24:04.021Z,36
2023-05-30T07:25:20.175Z,35.5
2023-05-30T07:26:36.301Z,35
2023-05-30T07:27:52.438Z,34.5
2023-05-30T07:29:08.630Z,34.1
2023-05-30T07:30:23.870Z,33.7
2023-05-30T07:31:39.085Z,33.4
2023-05-30T07:32:54.243Z,33.2
2023-05-30T07:34:10.378Z,32.9
2023-05-30T07:35:26.519Z,32.5
2023-05-30T07:36:42.653Z,32.3
2023-05-30T07:37:58.791Z,32.1
2023-05-30T07:39:14.919Z,32
2023-05-30T07:40:31.071Z,31.6
2023-05-30T07:41:47.197Z,31.6
2023-05-30T07:43:03.336Z,31.3
2023-05-30T07:44:19.475Z,31.1
2023-05-30T07:45:35.590Z,30.9
2023-05-30T07:46:51.758Z,30.7
2023-05-30T07:48:07.880Z,30.5
2023-05-30T07:49:24.015Z,30.4
2023-05-30T07:50:40.270Z,30.3
2023-05-30T07:51:56.396Z,30.2
2023-05-30T07:53:12.544Z,30
2023-05-30T07:54:28.686Z,29.9
2023-05-30T07:55:44.816Z,29.8
2023-05-30T07:57:00.955Z,29.7
2023-05-30T07:58:17.098Z,29.6
2023-05-30T07:59:33.231Z,29.5
2023-05-30T08:00:49.362Z,29.4
2023-05-30T08:02:05.497Z,29.3
2023-05-30T08:03:21.636Z,29.2
2023-05-30T08:04:37.782Z,29.2
2023-05-30T08:05:53.915Z,29.1
2023-05-30T08:07:10.062Z,29.1
2023-05-30T08:08:26.200Z,28.9
2023-05-30T08:09:42.329Z,28.9
2023-05-30T08:10:58.453Z,28.9
2023-05-30T08:12:14.616Z,28.8
2023-05-30T08:13:30.748Z,28.7
2023-05-30T08:14:46.872Z,28.7
2023-05-30T08:16:03.026Z,28.6
2023-05-30T08:17:19.142Z,28.6
2023-05-30T08:18:35.291Z,28.5
2023-05-30T08:19:51.421Z,28.5
2023-05-30T08:21:07.564Z,28.4
2023-05-30T08:22:23.686Z,28.4
2023-05-30T08:23:39.831Z,28.3
2023-05-30T08:24:55.986Z,28.3
2023-05-30T08:26:12.103Z,28.3
2023-05-30T08:27:28.245Z,28.1
2023-05-30T08:28:44.384Z,28.1
2023-05-30T08:30:00.518Z,28.1
2023-05-30T08:31:16.675Z,28
2023-05-30T08:32:32.793Z,28
2023-05-30T08:33:48.936Z,27.8
2023-05-30T08:35:05.078Z,27.7
2023-05-30T08:36:21.207Z,27.7
2023-05-30T08:37:37.403Z,27.6
2023-05-30T08:38:52.626Z,27.6
2023-05-30T08:40:07.771Z,27.6
2023-05-30T08:41:23.914Z,27.5
2023-05-30T08:42:40.062Z,27.4
2023-05-30T08:43:56.199Z,27.4
2023-05-30T08:45:12.324Z,27.3
2023-05-30T08:46:28.457Z,27.3
2023-05-30T08:47:44.612Z,27.2
2023-05-30T08:49:00.745Z,27.2
2023-05-30T08:50:16.875Z,27.1
2023-05-30T08:51:33.012Z,27
2023-05-30T08:52:49.137Z,27
2023-05-30T08:54:05.291Z,27
2023-05-30T08:55:21.428Z,26.9
2023-05-30T08:56:37.000Z,26.9
2023-05-30T08:57:53.700Z,26.8
2023-05-30T08:59:09.841Z,26.8
2023-05-30T09:00:25.993Z,26.7
2023-05-30T09:01:42.115Z,26.7
2023-05-30T09:02:58.248Z,26.6
2023-05-30T09:04:14.387Z,26.6
2023-05-30T09:05:30.522Z,26.5
2023-05-30T09:06:46.677Z,26.5
2023-05-30T09:08:02.803Z,26.4
2023-05-30T09:09:18.938Z,26.4
2023-05-30T09:10:35.086Z,26.3
2023-05-30T09:11:51.216Z,26.3
2023-05-30T09:13:07.355Z,26.2
2023-05-30T09:14:23.000Z,26.1
2023-05-30T09:15:39.624Z,26
2023-05-30T09:16:55.771Z,25.9
2023-05-30T09:18:11.912Z,25.9
2023-05-30T09:19:28.056Z,25.9
2023-05-30T09:20:44.184Z,25.9
2023-05-30T09:22:00.474Z,25.8
2023-05-30T09:23:15.628Z,25.8
2023-05-30T09:24:31.781Z,25.8
2023-05-30T09:25:47.908Z,25.8
2023-05-30T09:27:04.046Z,25.8
2023-05-30T09:28:20.180Z,25.8
2023-05-30T09:29:36.311Z,26
2023-05-30T09:30:52.464Z,26
2023-05-30T09:32:08.607Z,26
2023-05-30T09:33:24.734Z,25.9
2023-05-30T09:34:40.863Z,25.9
2023-05-30T09:35:57.006Z,26.1
2023-05-30T09:37:13.153Z,26.2
2023-05-30T09:38:29.293Z,26.1
2023-05-30T09:39:45.416Z,26.1
2023-05-30T09:41:01.562Z,26.1
2023-05-30T09:42:17.702Z,26
2023-05-30T09:43:33.839Z,26
2023-05-30T09:44:49.970Z,25.9
2023-05-30T09:46:06.115Z,26.6
2023-05-30T09:47:22.250Z,26.5
2023-05-30T09:48:38.385Z,26.4
2023-05-30T09:49:54.538Z,26.3
2023-05-30T09:51:10.666Z,26.3
2023-05-30T09:52:26.795Z,26.6
2023-05-30T09:53:42.939Z,26.6
2023-05-30T09:54:59.083Z,26.6
2023-05-30T09:56:15.225Z,26.6
2023-05-30T09:57:31.365Z,26.5
2023-05-30T09:58:47.494Z,26.4
2023-05-30T10:00:03.640Z,26.3
2023-05-30T10:01:19.763Z,26.2
2023-05-30T10:02:35.910Z,26.1
2023-05-30T10:03:52.043Z,26.1
2023-05-30T10:05:08.184Z,26.1
2023-05-30T10:06:24.321Z,26
2023-05-30T10:07:40.448Z,26
2023-05-30T10:08:56.611Z,26
2023-05-30T10:10:12.810Z,26
2023-05-30T10:11:28.069Z,26
2023-05-30T10:12:44.264Z,26
2023-05-30T10:13:59.460Z,26
2023-05-30T10:15:15.593Z,26
2023-05-30T10:16:31.732Z,26.1
2023-05-30T10:17:47.872Z,26.1
2023-05-30T10:19:04.028Z,26.1
2023-05-30T10:20:20.150Z,26.1
2023-05-30T10:21:36.295Z,26.1
2023-05-30T10:22:52.422Z,26.1
2023-05-30T10:24:08.558Z,26
2023-05-30T10:25:24.707Z,26.2
2023-05-30T10:26:40.845Z,27
2023-05-30T10:27:56.978Z,28
2023-05-30T10:29:13.114Z,28
2023-05-30T10:30:29.381Z,27.7
2023-05-30T10:31:45.517Z,27.6
2023-05-30T10:33:01.660Z,27.4
2023-05-30T10:34:17.795Z,27.3
2023-05-30T10:35:33.923Z,27.3
2023-05-30T10:36:50.074Z,27.2
2023-05-30T10:38:06.211Z,27.3
2023-05-30T10:39:22.347Z,27.3
2023-05-30T10:40:38.479Z,27.3
2023-05-30T10:41:54.628Z,27.3
2023-05-30T10:43:10.755Z,27.4
2023-05-30T10:44:26.912Z,27.6
2023-05-30T10:45:43.047Z,27.6
2023-05-30T10:46:59.181Z,28
2023-05-30T10:48:15.307Z,28.2
2023-05-30T10:49:31.443Z,28.2
2023-05-30T10:50:47.597Z,28.2
2023-05-30T10:52:03.723Z,28.2
2023-05-30T10:53:19.877Z,28.2
2023-05-30T10:54:36.010Z,28.8
2023-05-30T10:55:52.143Z,29.7
2023-05-30T10:57:08.292Z,30.3
2023-05-30T10:58:24.420Z,30.3
2023-05-30T10:59:40.555Z,30
2023-05-30T11:00:56.694Z,29.7
2023-05-30T11:02:12.821Z,29.5
2023-05-30T11:03:28.976Z,29.5
2023-05-30T11:04:45.119Z,29.4
2023-05-30T11:06:01.257Z,29.4
2023-05-30T11:07:17.389Z,29.4
2023-05-30T11:08:33.508Z,29.5
2023-05-30T11:09:49.657Z,29.6
2023-05-30T11:11:05.793Z,29.9
2023-05-30T11:12:22.083Z,30.8
2023-05-30T11:14:53.390Z,31.3
2023-05-30T11:16:09.528Z,31.9
2023-05-30T11:17:25.659Z,32.7
2023-05-30T11:18:41.793Z,32.7
2023-05-30T11:19:57.920Z,32.5
2023-05-30T11:21:14.074Z,32.5
2023-05-30T11:22:30.213Z,32.5
2023-05-30T11:23:46.341Z,32.7
2023-05-30T11:25:02.475Z,32.8
2023-05-30T11:26:18.602Z,33.2
2023-05-30T11:27:34.755Z,33.3
2023-05-30T11:28:50.892Z,33.7
2023-05-30T11:30:07.155Z,34.4
2023-05-30T11:31:23.291Z,34.8
2023-05-30T11:32:39.425Z,35
2023-05-30T11:33:55.567Z,35.1
2023-05-30T11:35:11.700Z,35.3
2023-05-30T11:36:27.846Z,35.5
2023-05-30T11:37:43.968Z,35.6
2023-05-30T11:39:00.101Z,35.8
2023-05-30T11:40:16.259Z,36
2023-05-30T11:41:32.396Z,36.2
2023-05-30T11:42:48.514Z,36.3
2023-05-30T11:44:04.661Z,36.4
2023-05-30T11:45:20.785Z,36.6
2023-05-30T11:46:36.933Z,36.7
2023-05-30T11:47:53.069Z,36.7
2023-05-30T11:49:09.219Z,36.9
2023-05-30T11:50:25.340Z,37.1
2023-05-30T11:51:41.468Z,37.2
2023-05-30T11:52:57.623Z,37.2
2023-05-30T11:54:13.000Z,37.3
2023-05-30T11:55:29.898Z,37.5
2023-05-30T11:56:46.037Z,37.5
2023-05-30T11:58:02.153Z,37.7
2023-05-30T11:59:18.309Z,37.7
2023-05-30T12:00:34.440Z,37.8
2023-05-30T12:01:50.574Z,37.8
2023-05-30T12:03:06.717Z,37.9
2023-05-30T12:04:22.845Z,38
2023-05-30T12:06:55.175Z,38.1
2023-05-30T12:08:11.304Z,38.2
2023-05-30T12:10:43.586Z,38.4
2023-05-30T12:11:59.720Z,38.5
2023-05-30T12:13:15.861Z,38.6
2023-05-30T12:14:31.984Z,38.6
2023-05-30T12:15:48.118Z,38.8
2023-05-30T12:17:04.325Z,38.8
2023-05-30T12:18:19.557Z,38.8
2023-05-30T12:19:34.766Z,38.8
2023-05-30T12:20:50.891Z,38.9
2023-05-30T12:22:07.052Z,39.1
2023-05-30T12:23:23.178Z,39.2
2023-05-30T12:24:39.315Z,39.3
2023-05-30T12:25:55.452Z,39.4
2023-05-30T12:27:11.585Z,39.4
2023-05-30T12:28:27.727Z,39.5
2023-05-30T12:29:43.876Z,39.5
2023-05-30T12:31:00.001Z,39.6
2023-05-30T12:32:16.129Z,39.7
2023-05-30T12:33:32.258Z,39.7
2023-05-30T12:34:48.409Z,39.8
2023-05-30T12:36:04.544Z,39.8
2023-05-30T12:37:20.686Z,39.8
2023-05-30T12:38:36.824Z,39.9
2023-05-30T12:39:52.946Z,40
2023-05-30T12:41:09.101Z,40.1
2023-05-30T12:42:25.238Z,40.1
2023-05-30T12:43:41.361Z,40.1
2023-05-30T12:44:57.495Z,40.2
2023-05-30T12:46:13.622Z,40.3
2023-05-30T12:47:29.773Z,40.4
2023-05-30T12:48:45.924Z,40.5
2023-05-30T12:50:02.053Z,40.6
2023-05-30T12:51:18.244Z,40.7
2023-05-30T12:52:33.480Z,40.7
2023-05-30T12:53:48.691Z,40.8
2023-05-30T12:55:03.848Z,40.8
2023-05-30T12:56:19.982Z,40.9
2023-05-30T12:57:36.120Z,40.9
2023-05-30T12:58:52.262Z,41
2023-05-30T13:00:08.000Z,41
2023-05-30T13:01:24.517Z,41
2023-05-30T13:02:40.660Z,41
2023-05-30T13:03:56.797Z,41
2023-05-30T13:05:12.943Z,41
2023-05-30T13:06:29.077Z,40.9
2023-05-30T13:07:45.202Z,40.9
2023-05-30T13:09:01.345Z,40.9
2023-05-30T13:10:17.482Z,40.8
2023-05-30T13:11:33.608Z,40.9
2023-05-30T13:12:49.750Z,40.9
2023-05-30T13:14:05.888Z,40.9
2023-05-30T13:15:22.041Z,40.9
2023-05-30T13:16:38.172Z,41
2023-05-30T13:17:54.295Z,41
2023-05-30T13:19:10.430Z,41.1
2023-05-30T13:20:26.557Z,41.1
2023-05-30T13:21:42.703Z,41.2
2023-05-30T13:22:58.837Z,41.3
2023-05-30T13:24:14.973Z,41.3
2023-05-30T13:25:31.123Z,41.3
2023-05-30T13:26:47.247Z,41.3
2023-05-30T13:28:03.399Z,41.4
2023-05-30T13:29:19.524Z,41.5
2023-05-30T13:30:35.669Z,41.5
2023-05-30T13:31:51.785Z,41.5
2023-05-30T13:33:07.930Z,41.5
2023-05-30T13:34:24.084Z,41.5
2023-05-30T13:35:40.207Z,41.6
2023-05-30T13:36:56.353Z,41.6
2023-05-30T13:38:12.485Z,41.8
2023-05-30T13:39:28.618Z,41.9
2023-05-30T13:40:44.766Z,41.9
2023-05-30T13:42:00.956Z,41.9
2023-05-30T13:43:16.188Z,42
2023-05-30T13:44:31.387Z,42
2023-05-30T13:45:47.531Z,42
2023-05-30T13:47:03.661Z,42.1
2023-05-30T13:48:19.792Z,42.1
2023-05-30T13:49:35.930Z,42.1
2023-05-30T13:50:52.069Z,42.1
2023-05-30T13:52:08.203Z,42.1
2023-05-30T13:53:24.337Z,42.1
2023-05-30T13:54:40.479Z,42.1
2023-05-30T13:55:56.610Z,42.2
2023-05-30T13:57:12.753Z,42.2
2023-05-30T13:58:28.892Z,42.2
2023-05-30T13:59:45.029Z,42.2
2023-05-30T14:01:01.150Z,42.2
2023-05-30T14:02:17.286Z,42.2
2023-05-30T14:03:33.437Z,42.2
2023-05-30T14:04:49.568Z,42.2
2023-05-30T14:06:05.698Z,42.2
2023-05-30T14:07:21.833Z,42.3
2023-05-30T14:08:37.968Z,42.3
2023-05-30T14:09:54.115Z,42.3
2023-05-30T14:11:10.255Z,42.3
2023-05-30T14:12:26.385Z,42.4
2023-05-30T14:13:42.531Z,42.4
2023-05-30T14:14:58.652Z,42.5
2023-05-30T14:16:14.856Z,42.6
2023-05-30T14:17:30.107Z,42.6
2023-05-30T14:18:45.368Z,42.5
2023-05-30T14:20:00.580Z,42.6
2023-05-30T14:21:16.708Z,42.6
2023-05-30T14:22:32.841Z,42.6
2023-05-30T14:23:48.973Z,42.6
2023-05-30T14:25:05.129Z,42.6
2023-05-30T14:26:21.264Z,42.6
2023-05-30T14:27:37.405Z,42.6
2023-05-30T14:28:53.532Z,42.5
2023-05-30T14:30:09.675Z,42.5
2023-05-30T14:31:25.825Z,42.5
2023-05-30T14:32:41.943Z,42.5
2023-05-30T14:33:58.089Z,42.5
2023-05-30T14:35:14.227Z,42.5
2023-05-30T14:36:30.358Z,42.6
2023-05-30T14:37:46.490Z,42.6
2023-05-30T14:39:02.627Z,42.6
2023-05-30T14:40:18.762Z,42.7
2023-05-30T14:41:34.909Z,42.8
2023-05-30T14:42:51.043Z,42.8
2023-05-30T14:44:07.174Z,42.8
2023-05-30T14:45:23.325Z,42.8
2023-05-30T14:46:39.440Z,42.9
2023-05-30T14:47:55.581Z,42.9
2023-05-30T14:49:11.724Z,42.9
2023-05-30T14:50:27.870Z,43
2023-05-30T14:51:44.059Z,43
2023-05-30T14:52:59.326Z,43
2023-05-30T14:54:14.532Z,43
2023-05-30T14:55:30.662Z,43.1
2023-05-30T14:56:46.785Z,43.1
2023-05-30T14:58:02.928Z,43.1
2023-05-30T14:59:19.050Z,43.1
2023-05-30T15:00:35.208Z,43.1
2023-05-30T15:01:51.343Z,43.1
2023-05-30T15:03:07.473Z,43.1
2023-05-30T15:04:23.602Z,43.2
2023-05-30T15:05:39.749Z,43.2
2023-05-30T15:06:55.893Z,43.3
2023-05-30T15:08:12.016Z,43.4
2023-05-30T15:09:28.151Z,43.4
2023-05-30T15:10:44.291Z,43.5
2023-05-30T15:12:00.418Z,43.6
2023-05-30T15:13:16.578Z,43.6
2023-05-30T15:14:32.700Z,43.6
2023-05-30T15:15:48.834Z,43.6
2023-05-30T15:17:04.965Z,43.8
2023-05-30T15:18:21.102Z,43.8
2023-05-30T15:19:37.250Z,43.9
2023-05-30T15:20:53.386Z,44
2023-05-30T15:22:09.520Z,44
2023-05-30T15:23:25.648Z,44.1
2023-05-30T15:24:41.783Z,44.1
2023-05-30T15:25:57.985Z,44.1
2023-05-30T15:27:13.234Z,44.1
2023-05-30T15:28:28.443Z,44.2
2023-05-30T15:29:44.571Z,44.2
2023-05-30T15:31:00.703Z,44.2
2023-05-30T15:32:16.853Z,44.2
2023-05-30T15:33:32.988Z,44.2
2023-05-30T15:34:49.120Z,44.2
2023-05-30T15:36:05.258Z,44.3
2023-05-30T15:37:21.398Z,44.3
2023-05-30T15:38:37.520Z,44.3
2023-05-30T15:39:53.658Z,44.4
2023-05-30T15:41:09.788Z,44.4
2023-05-30T15:42:25.945Z,44.5
2023-05-30T15:43:42.087Z,44.5
2023-05-30T15:44:58.200Z,44.6
2023-05-30T15:46:14.344Z,44.6
2023-05-30T15:47:30.477Z,44.6
2023-05-30T15:48:46.620Z,44.6
2023-05-30T15:50:02.762Z,44.7
2023-05-30T15:51:18.899Z,44.7
2023-05-30T15:52:35.031Z,44.7
2023-05-30T15:53:51.154Z,44.7
2023-05-30T15:55:07.315Z,44.7
2023-05-30T15:56:23.443Z,44.7
2023-05-30T15:57:39.567Z,44.7
2023-05-30T15:58:55.713Z,44.7
2023-05-30T16:00:11.888Z,44.7
2023-05-30T16:01:27.147Z,44.7
2023-05-30T16:02:42.349Z,44.8
2023-05-30T16:03:58.477Z,44.8
2023-05-30T16:05:14.620Z,44.8
2023-05-30T16:06:30.752Z,44.8
2023-05-30T16:07:46.891Z,44.8
2023-05-30T16:09:03.030Z,44.8
2023-05-30T16:10:19.158Z,44.9
2023-05-30T16:11:35.313Z,44.9
2023-05-30T16:12:51.449Z,44.9
2023-05-30T16:14:07.572Z,44.9
2023-05-30T16:15:23.705Z,45
2023-05-30T16:16:39.846Z,45
2023-05-30T16:17:55.983Z,45
2023-05-30T16:19:12.116Z,45
2023-05-30T16:20:28.255Z,45.1
2023-05-30T16:21:44.382Z,45.1
2023-05-30T16:23:00.512Z,45.1
2023-05-30T16:24:16.669Z,45.2
2023-05-30T16:25:32.800Z,45.2
2023-05-30T16:28:05.076Z,45.3
2023-05-30T16:29:21.208Z,45.3
2023-05-30T16:30:37.350Z,45.3
2023-05-30T16:31:53.495Z,45.3
2023-05-30T16:33:09.629Z,45.3
2023-05-30T16:34:25.821Z,45.3
2023-05-30T16:35:41.051Z,45.3
2023-05-30T16:36:56.254Z,45.4
2023-05-30T16:38:11.412Z,45.4
2023-05-30T16:39:27.560Z,45.4
2023-05-30T16:40:43.693Z,45.5
2023-05-30T16:41:59.837Z,45.4
2023-05-30T16:43:15.954Z,45.4
2023-05-30T16:44:32.098Z,45.4
2023-05-30T16:45:48.249Z,45.4
2023-05-30T16:47:04.381Z,45.4
2023-05-30T16:48:20.518Z,45.5
2023-05-30T16:49:36.649Z,45.5
2023-05-30T16:50:52.773Z,45.5
2023-05-30T16:52:08.923Z,45.5
2023-05-30T16:53:25.063Z,45.5
2023-05-30T16:54:41.184Z,45.6
2023-05-30T16:55:57.314Z,45.6
2023-05-30T16:57:13.466Z,45.6
2023-05-30T16:58:29.613Z,45.6
2023-05-30T16:59:45.740Z,45.6
2023-05-30T17:01:01.876Z,45.8
2023-05-30T17:02:17.999Z,45.8
2023-05-30T17:03:34.137Z,45.8
2023-05-30T17:04:50.286Z,45.8
2023-05-30T17:06:06.418Z,45.8
2023-05-30T17:07:22.549Z,45.8
2023-05-30T17:08:38.694Z,45.8